Time;durP1;ratioP1;P1;durP2;ratioP2;P2;SDS_P1;SDS_P2;PMS_P1;PMS_P2;Temp;Humidity;BMP_temperature;BMP_pressure;BME280_temperature;BME280_humidity;BME280_pressure;Samples;Min_cycle;Max_cycle;Signal;HPM_P1;HPM_P2
2022/03/14 00:01:14;;;;;;;0.00;0.00;;;13.00;48.80;;;;;;4103518;28;20059;-75
2022/03/14 00:03:58;;;;;;;0.00;0.00;;;13.00;49.80;;;;;;4103873;28;20130;-74
2022/03/14 00:06:21;;;;;;;0.00;0.00;;;12.90;50.60;;;;;;4118770;28;20105;-76
2022/03/14 00:08:45;;;;;;;0.00;0.00;;;12.80;52.10;;;;;;4105869;28;20055;-77
2022/03/14 00:11:13;;;;;;;0.00;0.00;;;12.80;52.70;;;;;;4119112;28;20413;-76
2022/03/14 00:13:39;;;;;;;0.00;0.00;;;12.80;54.00;;;;;;4106143;28;20468;-76
2022/03/14 00:16:03;;;;;;;0.00;0.00;;;12.70;54.90;;;;;;4116473;28;20039;-75
2022/03/14 00:18:31;;;;;;;0.00;0.00;;;12.60;55.20;;;;;;4118429;28;20043;-75
2022/03/14 00:20:53;;;;;;;0.00;0.00;;;12.60;55.60;;;;;;4132622;28;20057;-76
2022/03/14 00:23:17;;;;;;;0.00;0.00;;;12.60;55.70;;;;;;4102909;28;20094;-74
2022/03/14 00:25:44;;;;;;;0.00;0.00;;;12.60;56.40;;;;;;4103053;28;20047;-73
2022/03/14 00:28:06;;;;;;;0.00;0.00;;;12.50;57.10;;;;;;4118250;28;20070;-75
2022/03/14 00:30:28;;;;;;;0.00;0.00;;;12.50;57.10;;;;;;4102944;28;20126;-75
2022/03/14 00:32:52;;;;;;;0.00;0.00;;;12.40;57.20;;;;;;4095924;28;20057;-73
2022/03/14 00:35:17;;;;;;;0.00;0.00;;;12.30;57.40;;;;;;4089497;28;20058;-74
2022/03/14 00:37:40;;;;;;;0.00;0.00;;;12.30;57.50;;;;;;4102710;28;20564;-75
2022/03/14 00:40:10;;;;;;;0.00;0.00;;;12.30;57.60;;;;;;4102729;28;20047;-73
2022/03/14 00:42:38;;;;;;;0.00;0.00;;;12.40;57.70;;;;;;4106195;28;20134;-76
2022/03/14 00:45:01;;;;;;;0.00;0.00;;;12.30;57.70;;;;;;4105406;28;20055;-75
2022/03/14 00:47:23;;;;;;;0.00;0.00;;;12.30;58.00;;;;;;4115615;28;20118;-75
2022/03/14 00:49:48;;;;;;;0.00;0.00;;;12.30;57.90;;;;;;4102398;28;20047;-75
2022/03/14 00:52:13;;;;;;;0.00;0.00;;;12.20;57.90;;;;;;4102823;28;20043;-73
2022/03/14 00:54:38;;;;;;;0.00;0.00;;;12.20;58.40;;;;;;4105003;28;20050;-73
2022/03/14 00:57:02;;;;;;;0.00;0.00;;;12.00;58.50;;;;;;4118785;28;20050;-77
2022/03/14 00:59:24;;;;;;;0.00;0.00;;;12.00;58.70;;;;;;4118571;28;20365;-72
2022/03/14 01:01:49;;;;;;;0.00;0.00;;;11.80;59.10;;;;;;4105019;28;20061;-72
2022/03/14 01:04:14;;;;;;;0.00;0.00;;;11.80;59.20;;;;;;4105151;28;20125;-76
2022/03/14 01:06:37;;;;;;;0.00;0.00;;;11.90;59.30;;;;;;4131719;28;20042;-74
2022/03/14 01:08:59;;;;;;;0.00;0.00;;;11.80;59.00;;;;;;4102235;28;20055;-73
2022/03/14 01:11:21;;;;;;;0.00;0.00;;;11.70;59.20;;;;;;4102145;28;20063;-73
2022/03/14 01:13:45;;;;;;;0.00;0.00;;;11.70;59.80;;;;;;4088978;28;20099;-74
2022/03/14 01:16:09;;;;;;;0.00;0.00;;;11.60;60.00;;;;;;4101672;28;20099;-75
2022/03/14 01:18:34;;;;;;;0.00;0.00;;;11.50;60.40;;;;;;4092569;28;20061;-73
2022/03/14 01:20:59;;;;;;;0.00;0.00;;;11.60;60.60;;;;;;4104649;28;20110;-75
2022/03/14 01:23:24;;;;;;;0.00;0.00;;;11.60;61.00;;;;;;4118057;28;20043;-73
2022/03/14 01:25:49;;;;;;;0.00;0.00;;;11.40;62.00;;;;;;4118103;28;20055;-75
2022/03/14 01:28:15;;;;;;;0.00;0.00;;;11.40;62.40;;;;;;4117770;28;20203;-77
2022/03/14 01:30:39;;;;;;;0.00;0.00;;;11.40;63.20;;;;;;4131357;28;20042;-76
2022/03/14 01:33:03;;;;;;;0.00;0.00;;;11.40;63.90;;;;;;4088910;28;20044;-76
2022/03/14 01:35:28;;;;;;;0.00;0.00;;;11.20;64.90;;;;;;4087901;28;20043;-74
2022/03/14 01:37:50;;;;;;;0.00;0.00;;;11.20;66.00;;;;;;4102074;28;20043;-76
2022/03/14 01:40:14;;;;;;;0.00;0.00;;;11.10;66.90;;;;;;4088164;28;20053;-74
2022/03/14 01:42:37;;;;;;;0.00;0.00;;;11.00;67.80;;;;;;4101962;28;20055;-73
2022/03/14 01:45:01;;;;;;;0.00;0.00;;;11.00;68.20;;;;;;4088815;28;20475;-76
2022/03/14 01:47:28;;;;;;;0.00;0.00;;;10.90;68.60;;;;;;4098925;28;20510;-75
2022/03/14 01:49:52;;;;;;;0.00;0.00;;;10.80;69.40;;;;;;4101762;28;20492;-73
2022/03/14 01:52:15;;;;;;;0.00;0.00;;;10.80;70.10;;;;;;4117431;28;20105;-75
2022/03/14 01:54:41;;;;;;;0.00;0.00;;;10.70;70.70;;;;;;4131216;28;20043;-75
2022/03/14 01:57:05;;;;;;;0.00;0.00;;;10.70;70.60;;;;;;4088610;28;20051;-76
2022/03/14 01:59:29;;;;;;;0.00;0.00;;;10.50;70.80;;;;;;4088485;28;20054;-76
2022/03/14 02:02:05;;;;;;;0.00;0.00;;;10.50;71.00;;;;;;4115369;28;20114;-73
2022/03/14 02:04:30;;;;;;;0.00;0.00;;;10.50;70.90;;;;;;4089139;28;20157;-74
2022/03/14 02:06:57;;;;;;;0.00;0.00;;;10.70;70.40;;;;;;4101906;28;20062;-75
2022/03/14 02:09:20;;;;;;;0.00;0.00;;;10.70;70.50;;;;;;4101915;28;20132;-73
2022/03/14 02:11:57;;;;;;;0.00;0.00;;;10.80;70.60;;;;;;4101509;28;20078;-73
2022/03/14 02:14:22;;;;;;;0.00;0.00;;;10.70;70.30;;;;;;4088471;28;20071;-75
2022/03/14 02:16:45;;;;;;;0.00;0.00;;;10.60;70.00;;;;;;4102190;28;20094;-75
2022/03/14 02:19:11;;;;;;;0.00;0.00;;;10.50;70.00;;;;;;4088227;28;20201;-76
2022/03/14 02:21:40;;;;;;;0.00;0.00;;;10.40;70.30;;;;;;4088571;28;20047;-75
2022/03/14 02:24:08;;;;;;;0.00;0.00;;;10.30;70.40;;;;;;4130859;28;20117;-73
2022/03/14 02:26:30;;;;;;;0.00;0.00;;;10.40;70.20;;;;;;4101851;28;20051;-74
2022/03/14 02:28:52;;;;;;;0.00;0.00;;;10.40;70.30;;;;;;4102051;28;20564;-75
2022/03/14 02:31:16;;;;;;;0.00;0.00;;;10.40;70.80;;;;;;4101386;28;20047;-75
2022/03/14 02:33:38;;;;;;;0.00;0.00;;;10.40;71.70;;;;;;4075203;28;20047;-76
2022/03/14 02:36:03;;;;;;;0.00;0.00;;;10.40;71.60;;;;;;4101416;28;20043;-76
2022/03/14 02:38:25;;;;;;;0.00;0.00;;;10.60;71.00;;;;;;4101052;28;20043;-75
2022/03/14 02:40:48;;;;;;;0.00;0.00;;;10.70;70.80;;;;;;4101549;28;20043;-76
2022/03/14 02:43:10;;;;;;;0.00;0.00;;;10.80;70.70;;;;;;4114805;28;20049;-73
2022/03/14 02:45:33;;;;;;;0.00;0.00;;;10.80;70.80;;;;;;4101538;28;20047;-75
2022/03/14 02:47:57;;;;;;;0.00;0.00;;;10.80;70.90;;;;;;4090297;28;20451;-74
2022/03/14 02:50:22;;;;;;;0.00;0.00;;;10.90;71.00;;;;;;4120123;28;20066;-74
2022/03/14 02:52:49;;;;;;;0.00;0.00;;;10.90;71.10;;;;;;4106710;28;20062;-74
2022/03/14 02:55:11;;;;;;;0.00;0.00;;;10.70;71.60;;;;;;4117529;28;20519;-74
2022/03/14 02:57:33;;;;;;;0.00;0.00;;;10.80;71.70;;;;;;4103951;28;20173;-74
2022/03/14 02:59:56;;;;;;;0.00;0.00;;;10.80;71.30;;;;;;4104215;28;20098;-76
2022/03/14 03:02:25;;;;;;;0.00;0.00;;;10.90;70.90;;;;;;4103952;28;20058;-74
2022/03/14 03:04:47;;;;;;;0.00;0.00;;;10.90;70.90;;;;;;4090928;28;20544;-74
2022/03/14 03:07:12;;;;;;;0.00;0.00;;;10.90;71.00;;;;;;4090701;28;20051;-75
2022/03/14 03:09:34;;;;;;;0.00;0.00;;;10.90;70.70;;;;;;4103987;28;20061;-75
2022/03/14 03:12:01;;;;;;;0.00;0.00;;;10.90;70.60;;;;;;4117390;28;20087;-75
2022/03/14 03:14:30;;;;;;;0.00;0.00;;;11.00;70.50;;;;;;4103617;28;20118;-75
2022/03/14 03:16:54;;;;;;;0.00;0.00;;;11.00;70.30;;;;;;4103864;28;20121;-74
2022/03/14 03:19:23;;;;;;;0.00;0.00;;;11.00;70.20;;;;;;4103910;28;20047;-76
2022/03/14 03:21:47;;;;;;;0.00;0.00;;;11.00;70.40;;;;;;4090293;28;20055;-72
2022/03/14 03:24:09;;;;;;;0.00;0.00;;;10.90;70.40;;;;;;4119449;28;20138;-73
2022/03/14 03:26:34;;;;;;;0.00;0.00;;;11.00;70.50;;;;;;4106535;28;20042;-74
2022/03/14 03:28:58;;;;;;;0.00;0.00;;;10.80;70.70;;;;;;4090309;28;20364;-76
2022/03/14 03:31:25;;;;;;;0.00;0.00;;;10.80;71.00;;;;;;4103670;28;20077;-74
2022/03/14 03:33:50;;;;;;;0.00;0.00;;;10.80;70.90;;;;;;4103768;28;20051;-74
2022/03/14 03:36:12;;;;;;;0.00;0.00;;;10.90;70.70;;;;;;4103303;28;20427;-75
2022/03/14 03:38:35;;;;;;;0.00;0.00;;;10.90;70.50;;;;;;4103597;28;20032;-76
2022/03/14 03:40:59;;;;;;;0.00;0.00;;;11.00;70.40;;;;;;4103899;28;20960;-75
2022/03/14 03:43:24;;;;;;;0.00;0.00;;;10.90;70.20;;;;;;4117006;28;20051;-73
2022/03/14 03:45:46;;;;;;;0.00;0.00;;;11.00;70.20;;;;;;4090667;28;20083;-74
2022/03/14 03:48:13;;;;;;;0.00;0.00;;;11.00;70.00;;;;;;4103978;28;20055;-73
2022/03/14 03:50:38;;;;;;;0.00;0.00;;;11.10;70.00;;;;;;4103658;28;20047;-75
2022/03/14 03:53:02;;;;;;;0.00;0.00;;;11.00;70.00;;;;;;4117147;28;20438;-72
2022/03/14 03:55:27;;;;;;;0.00;0.00;;;11.00;70.40;;;;;;4117334;28;20058;-73
2022/03/14 03:57:50;;;;;;;0.00;0.00;;;11.00;70.50;;;;;;4104099;28;20129;-73
2022/03/14 04:00:14;;;;;;;0.00;0.00;;;11.00;70.60;;;;;;4102942;28;20054;-74
2022/03/14 04:02:39;;;;;;;0.00;0.00;;;11.10;70.50;;;;;;4103631;28;20047;-73
2022/03/14 04:05:02;;;;;;;0.00;0.00;;;11.10;70.30;;;;;;4111067;28;20057;-76
2022/03/14 04:07:26;;;;;;;0.00;0.00;;;11.20;70.20;;;;;;4119472;28;20046;-75
2022/03/14 04:09:55;;;;;;;0.00;0.00;;;11.20;69.80;;;;;;4116415;28;20061;-75
2022/03/14 04:12:26;;;;;;;0.00;0.00;;;11.20;69.70;;;;;;4118315;28;20046;-72
2022/03/14 04:14:52;;;;;;;0.00;0.00;;;11.10;69.60;;;;;;4132920;28;20057;-76
2022/03/14 04:17:14;;;;;;;0.00;0.00;;;11.20;69.40;;;;;;4119382;28;20042;-76
2022/03/14 04:19:43;;;;;;;0.00;0.00;;;11.20;69.20;;;;;;4119417;28;20085;-74
2022/03/14 04:22:06;;;;;;;0.00;0.00;;;11.20;69.30;;;;;;4102992;28;20043;-74
2022/03/14 04:24:28;;;;;;;0.00;0.00;;;11.00;70.10;;;;;;4117047;28;20104;-73
2022/03/14 04:26:52;;;;;;;0.00;0.00;;;10.80;70.40;;;;;;4103366;28;20398;-76
2022/03/14 04:29:15;;;;;;;0.00;0.00;;;10.80;70.50;;;;;;4103528;28;20057;-73
2022/03/14 04:31:37;;;;;;;0.00;0.00;;;10.90;70.70;;;;;;4100025;28;20047;-75
2022/03/14 04:33:59;;;;;;;0.00;0.00;;;10.90;70.60;;;;;;4116371;28;20117;-75
2022/03/14 04:36:23;;;;;;;0.00;0.00;;;10.70;70.90;;;;;;4102685;28;20043;-73
2022/03/14 04:38:48;;;;;;;0.00;0.00;;;10.70;71.20;;;;;;4102809;28;20047;-74
2022/03/14 04:41:17;;;;;;;0.00;0.00;;;10.70;71.20;;;;;;4116938;28;20090;-74
2022/03/14 04:43:41;;;;;;;0.00;0.00;;;10.70;71.50;;;;;;4102150;28;20054;-74
2022/03/14 04:46:03;;;;;;;0.00;0.00;;;10.80;71.60;;;;;;4105255;28;20059;-74
2022/03/14 04:48:25;;;;;;;0.00;0.00;;;10.70;71.80;;;;;;4102191;28;20416;-76
2022/03/14 04:50:50;;;;;;;0.00;0.00;;;10.80;71.80;;;;;;4102913;28;20055;-74
2022/03/14 04:53:12;;;;;;;0.00;0.00;;;10.80;71.70;;;;;;4115990;28;20047;-74
2022/03/14 04:55:37;;;;;;;0.00;0.00;;;10.90;71.50;;;;;;4089282;28;20095;-74
2022/03/14 04:58:05;;;;;;;0.00;0.00;;;11.00;71.20;;;;;;4115862;28;20106;-74
2022/03/14 05:00:30;;;;;;;0.00;0.00;;;11.00;71.00;;;;;;4104816;28;20043;-74
2022/03/14 05:03:04;;;;;;;0.00;0.00;;;10.90;71.00;;;;;;4118639;28;20046;-76
2022/03/14 05:05:37;;;;;;;0.00;0.00;;;10.90;71.00;;;;;;4118739;28;20078;-72
2022/03/14 05:07:59;;;;;;;0.00;0.00;;;10.90;70.80;;;;;;4118670;28;20073;-74
2022/03/14 05:10:23;;;;;;;0.00;0.00;;;10.90;70.50;;;;;;4118180;28;20043;-73
2022/03/14 05:12:48;;;;;;;0.00;0.00;;;10.90;70.20;;;;;;4116006;28;20530;-75
2022/03/14 05:15:14;;;;;;;0.00;0.00;;;10.90;70.10;;;;;;4102341;28;20371;-73
2022/03/14 05:17:36;;;;;;;0.00;0.00;;;10.90;69.90;;;;;;4116463;28;20058;-76
2022/03/14 05:20:06;;;;;;;0.00;0.00;;;10.90;69.80;;;;;;4102165;28;20477;-75
2022/03/14 05:22:34;;;;;;;0.00;0.00;;;10.80;69.90;;;;;;4115491;28;20441;-73
2022/03/14 05:24:56;;;;;;;0.00;0.00;;;10.70;70.20;;;;;;4116056;28;20046;-75
2022/03/14 05:27:23;;;;;;;0.00;0.00;;;10.60;70.30;;;;;;4103168;28;20059;-74
2022/03/14 05:29:46;;;;;;;0.00;0.00;;;10.60;71.00;;;;;;4128851;28;20061;-73
2022/03/14 05:32:08;;;;;;;0.00;0.00;;;10.50;70.50;;;;;;4117891;28;20505;-75
2022/03/14 05:34:35;;;;;;;0.00;0.00;;;10.40;70.70;;;;;;4104989;28;20089;-74
2022/03/14 05:36:59;;;;;;;0.00;0.00;;;10.40;70.90;;;;;;4089288;28;20498;-73
2022/03/14 05:39:21;;;;;;;0.00;0.00;;;10.40;70.80;;;;;;4099355;28;20533;-75
2022/03/14 05:41:43;;;;;;;0.00;0.00;;;10.40;71.00;;;;;;4091566;28;20066;-76
2022/03/14 05:44:08;;;;;;;0.00;0.00;;;10.40;71.00;;;;;;4101900;28;20090;-74
2022/03/14 05:46:30;;;;;;;0.00;0.00;;;10.30;71.30;;;;;;4117951;28;20038;-74
2022/03/14 05:48:52;;;;;;;0.00;0.00;;;10.20;71.30;;;;;;4131953;28;20043;-74
2022/03/14 05:51:17;;;;;;;0.00;0.00;;;10.20;71.30;;;;;;4104766;28;20047;-73
2022/03/14 05:53:46;;;;;;;0.00;0.00;;;10.10;71.80;;;;;;4118399;28;20089;-74
2022/03/14 05:56:10;;;;;;;0.00;0.00;;;10.00;72.00;;;;;;4102592;28;20059;-75
2022/03/14 05:58:33;;;;;;;0.00;0.00;;;10.10;71.90;;;;;;4118235;28;20385;-74
2022/03/14 06:00:57;;;;;;;0.00;0.00;;;10.10;71.70;;;;;;4102195;28;20048;-74
2022/03/14 06:03:22;;;;;;;0.00;0.00;;;10.20;71.70;;;;;;4076124;28;20063;-78
2022/03/14 06:05:44;;;;;;;0.00;0.00;;;10.20;71.70;;;;;;4102269;28;20061;-74
2022/03/14 06:08:09;;;;;;;0.00;0.00;;;10.20;71.60;;;;;;4101923;28;20513;-73
2022/03/14 06:10:36;;;;;;;0.00;0.00;;;10.00;72.10;;;;;;4102122;28;20054;-75
2022/03/14 06:13:01;;;;;;;0.00;0.00;;;9.80;72.90;;;;;;4102083;28;20548;-75
2022/03/14 06:15:23;;;;;;;0.00;0.00;;;9.90;73.00;;;;;;4099284;28;20247;-74
2022/03/14 06:17:45;;;;;;;0.00;0.00;;;10.10;72.80;;;;;;4117891;28;20042;-74
2022/03/14 06:20:13;;;;;;;0.00;0.00;;;10.40;72.50;;;;;;4104481;28;20054;-74
2022/03/14 06:22:38;;;;;;;0.00;0.00;;;10.60;71.80;;;;;;4119417;28;20110;-75
2022/03/14 06:25:04;;;;;;;0.00;0.00;;;10.80;71.30;;;;;;4108429;28;20131;-76
2022/03/14 06:27:26;;;;;;;0.00;0.00;;;10.70;71.50;;;;;;4120982;28;20061;-74
2022/03/14 06:29:50;;;;;;;0.00;0.00;;;10.80;71.90;;;;;;4121341;28;20046;-74
2022/03/14 06:32:15;;;;;;;0.00;0.00;;;10.90;71.70;;;;;;4133870;28;20082;-74
2022/03/14 06:34:38;;;;;;;0.00;0.00;;;11.10;71.60;;;;;;4120807;28;20035;-73
2022/03/14 06:37:00;;;;;;;0.00;0.00;;;11.10;71.30;;;;;;4107864;28;20051;-74
2022/03/14 06:39:22;;;;;;;0.00;0.00;;;11.30;71.10;;;;;;4120508;28;20039;-76
2022/03/14 06:41:49;;;;;;;0.00;0.00;;;11.10;71.30;;;;;;4134242;28;20046;-76
2022/03/14 06:44:17;;;;;;;0.00;0.00;;;11.10;71.30;;;;;;4107396;28;20058;-75
2022/03/14 06:46:41;;;;;;;0.00;0.00;;;11.30;70.50;;;;;;4107012;28;20081;-73
2022/03/14 06:49:03;;;;;;;0.00;0.00;;;11.30;69.70;;;;;;4107524;28;20042;-75
2022/03/14 06:51:26;;;;;;;0.00;0.00;;;11.20;70.40;;;;;;4117741;28;20059;-74
2022/03/14 06:53:53;;;;;;;0.00;0.00;;;11.20;71.70;;;;;;4104894;28;20051;-74
2022/03/14 06:56:16;;;;;;;0.00;0.00;;;11.40;71.40;;;;;;4132349;28;20058;-74
2022/03/14 06:58:41;;;;;;;0.00;0.00;;;11.70;71.00;;;;;;4079823;28;20053;-74
2022/03/14 07:01:08;;;;;;;0.00;0.00;;;11.90;70.10;;;;;;4104714;28;20518;-74
2022/03/14 07:03:30;;;;;;;0.00;0.00;;;12.10;69.40;;;;;;4117880;28;20089;-74
2022/03/14 07:05:53;;;;;;;0.00;0.00;;;12.40;68.70;;;;;;4091166;28;20043;-75
2022/03/14 07:08:17;;;;;;;0.00;0.00;;;12.70;67.80;;;;;;4119994;28;20442;-75
2022/03/14 07:10:42;;;;;;;0.00;0.00;;;12.80;66.90;;;;;;4133812;28;20050;-72
2022/03/14 07:13:08;;;;;;;0.00;0.00;;;12.90;66.60;;;;;;4134238;28;20046;-75
2022/03/14 07:15:33;;;;;;;0.00;0.00;;;12.90;65.90;;;;;;4107730;28;20124;-74
2022/03/14 07:18:00;;;;;;;0.00;0.00;;;12.90;65.50;;;;;;4134122;28;20046;-72
2022/03/14 07:20:25;;;;;;;0.00;0.00;;;13.00;65.80;;;;;;4120067;28;20054;-72
2022/03/14 07:22:50;;;;;;;0.00;0.00;;;13.00;65.90;;;;;;4104409;28;20449;-72
2022/03/14 07:25:18;;;;;;;0.00;0.00;;;13.20;65.00;;;;;;4104160;28;20051;-73
2022/03/14 07:27:40;;;;;;;0.00;0.00;;;13.40;64.40;;;;;;4104262;28;20103;-73
2022/03/14 07:30:03;;;;;;;0.00;0.00;;;13.50;64.20;;;;;;4090803;28;20043;-72
2022/03/14 07:32:27;;;;;;;0.00;0.00;;;13.80;63.20;;;;;;4117142;28;20248;-72
2022/03/14 07:34:49;;;;;;;0.00;0.00;;;14.00;62.00;;;;;;4106031;28;20094;-71
2022/03/14 07:37:11;;;;;;;0.00;0.00;;;14.20;61.60;;;;;;4103236;28;20040;-75
2022/03/14 07:39:34;;;;;;;0.00;0.00;;;14.50;60.50;;;;;;4106403;28;20470;-71
2022/03/14 07:41:56;;;;;;;0.00;0.00;;;14.40;59.60;;;;;;4130724;28;20054;-72
2022/03/14 07:44:18;;;;;;;0.00;0.00;;;14.20;60.00;;;;;;4116400;28;20086;-74
2022/03/14 07:46:40;;;;;;;0.00;0.00;;;14.40;60.30;;;;;;4116719;28;20097;-74
2022/03/14 07:49:03;;;;;;;0.00;0.00;;;14.70;59.60;;;;;;4103440;28;20051;-76
2022/03/14 07:51:26;;;;;;;0.00;0.00;;;15.20;58.70;;;;;;4102817;28;20039;-71
2022/03/14 07:53:48;;;;;;;0.00;0.00;;;15.40;57.90;;;;;;4103010;28;20166;-74
2022/03/14 07:56:16;;;;;;;0.00;0.00;;;15.70;57.40;;;;;;4102951;28;20055;-74
2022/03/14 07:58:41;;;;;;;0.00;0.00;;;15.90;56.10;;;;;;4103743;28;20147;-76
2022/03/14 08:01:08;;;;;;;0.00;0.00;;;15.80;56.10;;;;;;4103598;28;20051;-73
2022/03/14 08:03:32;;;;;;;0.00;0.00;;;15.70;55.90;;;;;;4103650;28;20066;-74
2022/03/14 08:05:58;;;;;;;0.00;0.00;;;15.80;55.50;;;;;;4103356;28;20052;-73
2022/03/14 08:08:23;;;;;;;0.00;0.00;;;15.90;56.00;;;;;;4103253;28;20051;-72
2022/03/14 08:10:47;;;;;;;0.00;0.00;;;16.00;54.80;;;;;;4090338;28;20115;-73
2022/03/14 08:13:12;;;;;;;0.00;0.00;;;15.60;55.30;;;;;;4116809;28;20050;-73
2022/03/14 08:15:36;;;;;;;0.00;0.00;;;15.70;55.20;;;;;;4103216;28;20047;-74
2022/03/14 08:18:01;;;;;;;0.00;0.00;;;16.10;54.80;;;;;;4090136;28;20064;-71
2022/03/14 08:20:26;;;;;;;0.00;0.00;;;16.30;54.30;;;;;;4103162;28;20054;-72
2022/03/14 08:22:54;;;;;;;0.00;0.00;;;16.70;53.80;;;;;;4116640;28;20051;-73
2022/03/14 08:25:19;;;;;;;0.00;0.00;;;16.90;52.90;;;;;;4103123;28;20051;-71
2022/03/14 08:27:44;;;;;;;0.00;0.00;;;17.10;52.60;;;;;;4103188;28;20055;-73
2022/03/14 08:30:07;;;;;;;0.00;0.00;;;17.30;52.20;;;;;;4102860;28;20051;-74
2022/03/14 08:32:29;;;;;;;0.00;0.00;;;17.40;51.90;;;;;;4103074;28;20449;-73
2022/03/14 08:34:53;;;;;;;0.00;0.00;;;17.40;51.20;;;;;;4103722;28;20074;-72
2022/03/14 08:37:15;;;;;;;0.00;0.00;;;17.20;51.70;;;;;;4103463;28;20042;-72
2022/03/14 08:39:37;;;;;;;0.00;0.00;;;17.50;51.50;;;;;;4089799;28;20101;-72
2022/03/14 08:42:04;;;;;;;0.00;0.00;;;17.40;51.10;;;;;;4089784;28;20452;-72
2022/03/14 08:44:28;;;;;;;0.00;0.00;;;17.20;50.70;;;;;;4076205;28;20043;-74
2022/03/14 08:46:52;;;;;;;0.00;0.00;;;17.30;51.50;;;;;;4093216;28;20118;-76
2022/03/14 08:49:19;;;;;;;0.00;0.00;;;17.70;51.20;;;;;;4118809;28;20046;-73
2022/03/14 08:51:41;;;;;;;0.00;0.00;;;17.30;50.80;;;;;;4092448;28;20051;-71
2022/03/14 08:54:03;;;;;;;0.00;0.00;;;16.70;51.40;;;;;;4105396;28;20130;-73
2022/03/14 08:56:25;;;;;;;0.00;0.00;;;15.90;52.80;;;;;;4104870;28;20050;-74
2022/03/14 08:58:48;;;;;;;0.00;0.00;;;16.10;52.60;;;;;;4119035;28;20429;-73
2022/03/14 09:01:12;;;;;;;0.00;0.00;;;16.60;51.70;;;;;;4105625;28;20162;-73
2022/03/14 09:03:39;;;;;;;0.00;0.00;;;16.70;52.30;;;;;;4118776;28;20405;-73
2022/03/14 09:06:02;;;;;;;0.00;0.00;;;17.40;51.50;;;;;;4118652;28;20134;-73
2022/03/14 09:08:27;;;;;;;0.00;0.00;;;18.20;50.70;;;;;;4118357;28;20058;-72
2022/03/14 09:10:49;;;;;;;0.00;0.00;;;18.60;49.40;;;;;;4105259;28;20196;-74
2022/03/14 09:13:12;;;;;;;0.00;0.00;;;18.90;48.60;;;;;;4105279;28;20146;-74
2022/03/14 09:15:36;;;;;;;0.00;0.00;;;18.90;47.90;;;;;;4105195;28;20069;-73
2022/03/14 09:18:03;;;;;;;0.00;0.00;;;19.10;47.90;;;;;;4105389;28;20496;-72
2022/03/14 09:20:28;;;;;;;0.00;0.00;;;19.20;47.60;;;;;;4102180;28;20057;-74
2022/03/14 09:22:51;;;;;;;0.00;0.00;;;19.00;47.90;;;;;;4108598;28;20098;-75
2022/03/14 09:25:19;;;;;;;0.00;0.00;;;19.10;46.90;;;;;;4105134;28;20043;-75
2022/03/14 09:27:42;;;;;;;0.00;0.00;;;19.10;47.10;;;;;;4105026;28;20098;-72
2022/03/14 09:30:05;;;;;;;0.00;0.00;;;19.60;46.20;;;;;;4118658;28;20050;-74
2022/03/14 09:32:27;;;;;;;0.00;0.00;;;19.00;46.00;;;;;;4117917;28;20411;-72
2022/03/14 09:34:49;;;;;;;0.00;0.00;;;18.50;47.10;;;;;;4105046;28;20426;-72
2022/03/14 09:37:11;;;;;;;0.00;0.00;;;18.90;46.70;;;;;;4118292;28;20145;-73
2022/03/14 09:39:36;;;;;;;0.00;0.00;;;18.80;46.40;;;;;;4132126;28;20038;-73
2022/03/14 09:42:00;;;;;;;0.00;0.00;;;18.80;46.90;;;;;;4118016;28;20496;-72
2022/03/14 09:44:26;;;;;;;0.00;0.00;;;18.20;46.80;;;;;;4118359;28;20088;-73
2022/03/14 09:46:56;;;;;;;0.00;0.00;;;17.40;47.50;;;;;;4118188;28;20062;-73
2022/03/14 09:49:25;;;;;;;0.00;0.00;;;17.00;48.60;;;;;;4105856;28;20121;-74
2022/03/14 09:51:58;;;;;;;0.00;0.00;;;16.70;49.00;;;;;;4106139;28;20133;-72
2022/03/14 09:54:23;;;;;;;0.00;0.00;;;16.50;49.90;;;;;;4115225;28;20047;-74
2022/03/14 09:56:51;;;;;;;0.00;0.00;;;17.00;49.90;;;;;;4103111;28;20194;-72
2022/03/14 09:59:15;;;;;;;0.00;0.00;;;18.00;48.80;;;;;;4092548;28;20115;-73
2022/03/14 10:01:45;;;;;;;0.00;0.00;;;18.50;47.80;;;;;;4095297;28;20490;-72
2022/03/14 10:04:08;;;;;;;0.00;0.00;;;18.80;46.50;;;;;;4107646;28;20154;-69
2022/03/14 10:06:33;;;;;;;0.00;0.00;;;18.80;46.90;;;;;;4134878;28;20046;-73
2022/03/14 10:08:59;;;;;;;0.00;0.00;;;18.70;46.40;;;;;;4094993;28;20050;-73
2022/03/14 10:11:24;;;;;;;0.00;0.00;;;17.90;48.00;;;;;;4107821;28;20058;-72
2022/03/14 10:13:50;;;;;;;0.00;0.00;;;18.00;48.70;;;;;;4121933;28;20054;-71
2022/03/14 10:16:18;;;;;;;0.00;0.00;;;18.60;48.90;;;;;;4120616;28;20086;-72
2022/03/14 10:18:54;;;;;;;0.00;0.00;;;19.30;47.00;;;;;;4107520;28;20056;-74
2022/03/14 10:21:35;;;;;;;0.00;0.00;;;18.60;46.20;;;;;;4121298;28;20043;-74
2022/03/14 10:24:03;;;;;;;0.00;0.00;;;18.70;47.10;;;;;;4121034;28;20043;-72
2022/03/14 10:26:25;;;;;;;0.00;0.00;;;19.20;47.00;;;;;;4091720;28;20438;-72
2022/03/14 10:28:54;;;;;;;0.00;0.00;;;19.90;46.30;;;;;;4110593;28;20042;-71
2022/03/14 10:31:42;;;;;;;0.00;0.00;;;20.10;45.30;;;;;;4109969;28;20046;-71
2022/03/14 10:34:15;;;;;;;0.00;0.00;;;20.20;44.90;;;;;;4120689;28;20109;-72
2022/03/14 10:36:57;;;;;;;0.00;0.00;;;20.50;44.80;;;;;;4133955;28;20437;-73
2022/03/14 10:39:21;;;;;;;0.00;0.00;;;21.00;43.90;;;;;;4120696;28;20106;-71
2022/03/14 10:42:07;;;;;;;0.00;0.00;;;20.80;43.10;;;;;;4107563;28;20078;-72
2022/03/14 10:44:48;;;;;;;;;;;19.60;44.50;;;;;;4107354;28;20370;-72
2022/03/14 10:47:12;;;;;;;0.00;0.00;;;18.80;46.20;;;;;;4116066;28;20303;-73
2022/03/14 10:49:38;;;;;;;0.00;0.00;;;18.70;46.90;;;;;;4065419;28;20537;-72
2022/03/14 10:52:09;;;;;;;0.00;0.00;;;19.00;45.00;;;;;;4091862;28;20047;-75
2022/03/14 10:54:37;;;;;;;0.00;0.00;;;17.80;46.90;;;;;;4117545;28;20074;-71
2022/03/14 10:57:23;;;;;;;0.00;0.00;;;17.50;47.60;;;;;;4118009;28;20093;-73
2022/03/14 10:59:52;;;;;;;0.00;0.00;;;17.30;48.40;;;;;;4104537;28;20490;-72
2022/03/14 11:02:20;;;;;;;0.00;0.00;;;17.60;47.90;;;;;;4117415;28;20057;-71
2022/03/14 11:04:51;;;;;;;0.00;0.00;;;17.90;48.00;;;;;;4117936;28;20070;-73
2022/03/14 11:07:17;;;;;;;0.00;0.00;;;18.40;47.10;;;;;;4104503;28;20050;-72
2022/03/14 11:09:42;;;;;;;0.00;0.00;;;19.40;46.00;;;;;;4117750;28;20055;-76
2022/03/14 11:12:07;;;;;;;0.00;0.00;;;19.30;44.90;;;;;;4131776;28;20061;-76
2022/03/14 11:14:37;;;;;;;0.00;0.00;;;18.80;45.50;;;;;;4104541;28;20053;-72
2022/03/14 11:17:19;;;;;;;0.00;0.00;;;19.00;46.30;;;;;;4104661;28;20490;-73
2022/03/14 11:19:44;;;;;;;0.00;0.00;;;19.90;45.10;;;;;;4117816;28;20049;-73
2022/03/14 11:22:13;;;;;;;0.00;0.00;;;20.70;44.50;;;;;;4117294;28;20043;-72
2022/03/14 11:24:38;;;;;;;0.00;0.00;;;21.80;43.10;;;;;;4117713;28;20055;-74
2022/03/14 11:27:00;;;;;;;0.00;0.00;;;22.60;41.80;;;;;;4117723;28;20050;-73
2022/03/14 11:29:28;;;;;;;0.00;0.00;;;22.90;41.00;;;;;;4078619;28;20043;-72
2022/03/14 11:31:55;;;;;;;0.00;0.00;;;23.10;40.60;;;;;;4117386;28;20054;-75
2022/03/14 11:34:18;;;;;;;0.00;0.00;;;23.40;40.80;;;;;;4117031;28;20141;-74
2022/03/14 11:36:40;;;;;;;0.00;0.00;;;23.80;40.20;;;;;;4090905;28;20405;-73
2022/03/14 11:39:04;;;;;;;0.00;0.00;;;24.20;39.90;;;;;;4117646;28;20061;-71
2022/03/14 11:41:29;;;;;;;0.00;0.00;;;24.30;39.30;;;;;;4117308;28;20374;-72
2022/03/14 11:43:54;;;;;;;0.00;0.00;;;24.30;38.80;;;;;;4117150;28;20098;-74
2022/03/14 11:46:34;;;;;;;0.00;0.00;;;24.00;38.40;;;;;;4091795;28;20063;-73
2022/03/14 11:49:11;;;;;;;0.00;0.00;;;24.10;38.20;;;;;;4117227;28;20480;-74
2022/03/14 11:51:40;;;;;;;0.00;0.00;;;24.10;37.60;;;;;;4117054;28;20061;-72
2022/03/14 11:54:12;;;;;;;0.00;0.00;;;23.90;37.90;;;;;;4117408;28;20537;-75
2022/03/14 11:56:55;;;;;;;0.00;0.00;;;24.30;37.40;;;;;;4117008;28;20046;-74
2022/03/14 11:59:29;;;;;;;0.00;0.00;;;24.60;37.20;;;;;;4117400;28;20051;-73
2022/03/14 12:01:51;;;;;;;0.00;0.00;;;24.80;36.90;;;;;;4117002;28;20047;-74
2022/03/14 12:04:30;;;;;;;0.00;0.00;;;25.00;36.50;;;;;;4103623;28;20059;-72
2022/03/14 12:06:53;;;;;;;0.00;0.00;;;25.40;36.50;;;;;;4117099;28;20051;-74
2022/03/14 12:09:26;;;;;;;0.00;0.00;;;25.70;35.50;;;;;;4117031;28;20061;-74
2022/03/14 12:11:48;;;;;;;0.00;0.00;;;25.60;34.90;;;;;;4117081;28;20072;-74
2022/03/14 12:14:11;;;;;;;0.00;0.00;;;25.40;35.10;;;;;;4087764;28;20051;-75
2022/03/14 12:16:42;;;;;;;0.00;0.00;;;25.60;35.30;;;;;;4103709;28;20461;-73
2022/03/14 12:19:31;;;;;;;0.00;0.00;;;25.40;35.30;;;;;;4090065;28;20078;-71
2022/03/14 12:21:54;;;;;;;0.00;0.00;;;25.60;35.10;;;;;;4090046;28;20051;-72
2022/03/14 12:24:20;;;;;;;0.00;0.00;;;25.40;35.00;;;;;;4103351;28;20054;-74
2022/03/14 12:26:43;;;;;;;0.00;0.00;;;25.60;34.70;;;;;;4103405;28;20098;-76
2022/03/14 12:29:36;;;;;;;0.00;0.00;;;25.40;35.10;;;;;;4090418;28;20098;-75
2022/03/14 12:32:53;;;;;;;0.00;0.00;;;25.30;35.00;;;;;;4103307;28;20115;-71
2022/03/14 12:35:22;;;;;;;0.00;0.00;;;25.30;35.10;;;;;;4052098;29;20139;-72
2022/03/14 12:37:52;;;;;;;0.00;0.00;;;25.60;35.00;;;;;;4039320;29;20064;-69
2022/03/14 12:40:14;;;;;;;0.00;0.00;;;25.50;34.70;;;;;;4067950;29;20064;-72